sensor_id;sensor_type;location;lat;lon;timestamp;pressure;altitude;pressure_sealevel;temperature;humidity
75414;BME280;64758;52.122;5.404;2023-12-20T00:01:06;101793.50;;;6.01;100.00
75414;BME280;64758;52.122;5.404;2023-12-20T00:03:33;101785.75;;;5.99;100.00
75414;BME280;64758;52.122;5.404;2023-12-20T00:06:08;101786.56;;;6.00;100.00
75414;BME280;64758;52.122;5.404;2023-12-20T00:08:35;101781.56;;;5.97;100.00
75414;BME280;64758;52.122;5.404;2023-12-20T00:11:02;101777.25;;;5.96;100.00
75414;BME280;64758;52.122;5.404;2023-12-20T00:13:28;101774.06;;;5.92;100.00
75414;BME280;64758;52.122;5.404;2023-12-20T00:15:55;101770.47;;;5.93;100.00
75414;BME280;64758;52.122;5.404;2023-12-20T00:18:22;101776.00;;;5.90;100.00
75414;BME280;64758;52.122;5.404;2023-12-20T00:20:48;101774.34;;;5.89;100.00
75414;BME280;64758;52.122;5.404;2023-12-20T00:23:15;101777.25;;;5.86;100.00
75414;BME280;64758;52.122;5.404;2023-12-20T00:25:41;101774.03;;;5.83;100.00
75414;BME280;64758;52.122;5.404;2023-12-20T00:28:08;101766.59;;;5.77;100.00
75414;BME280;64758;52.122;5.404;2023-12-20T00:30:34;101764.81;;;5.77;100.00
75414;BME280;64758;52.122;5.404;2023-12-20T00:33:02;101779.22;;;5.73;100.00
75414;BME280;64758;52.122;5.404;2023-12-20T00:35:29;101775.91;;;5.71;100.00
75414;BME280;64758;52.122;5.404;2023-12-20T00:37:56;101777.69;;;5.71;100.00
75414;BME280;64758;52.122;5.404;2023-12-20T00:40:23;101780.72;;;5.66;100.00
75414;BME280;64758;52.122;5.404;2023-12-20T00:42:50;101777.38;;;5.64;100.00
75414;BME280;64758;52.122;5.404;2023-12-20T00:45:17;101778.34;;;5.63;100.00
75414;BME280;64758;52.122;5.404;2023-12-20T00:47:43;101775.97;;;5.60;100.00
75414;BME280;64758;52.122;5.404;2023-12-20T00:50:10;101773.34;;;5.60;100.00
75414;BME280;64758;52.122;5.404;2023-12-20T00:52:37;101770.97;;;5.57;100.00
75414;BME280;64758;52.122;5.404;2023-12-20T00:55:04;101772.06;;;5.55;100.00
75414;BME280;64758;52.122;5.404;2023-12-20T00:57:31;101774.94;;;5.52;100.00
75414;BME280;64758;52.122;5.404;2023-12-20T00:59:58;101783.13;;;5.49;100.00
75414;BME280;64758;52.122;5.404;2023-12-20T01:02:24;101783.25;;;5.47;100.00
75414;BME280;64758;52.122;5.404;2023-12-20T01:04:51;101772.72;;;5.47;100.00
75414;BME280;64758;52.122;5.404;2023-12-20T01:07:17;101780.75;;;5.46;100.00
75414;BME280;64758;52.122;5.404;2023-12-20T01:09:45;101766.75;;;5.45;100.00
75414;BME280;64758;52.122;5.404;2023-12-20T01:12:11;101758.16;;;5.43;100.00
75414;BME280;64758;52.122;5.404;2023-12-20T01:14:38;101763.53;;;5.42;100.00
75414;BME280;64758;52.122;5.404;2023-12-20T01:17:06;101759.13;;;5.42;100.00
75414;BME280;64758;52.122;5.404;2023-12-20T01:19:32;101757.44;;;5.41;100.00
75414;BME280;64758;52.122;5.404;2023-12-20T01:21:59;101760.19;;;5.40;100.00
75414;BME280;64758;52.122;5.404;2023-12-20T01:24:26;101754.22;;;5.38;100.00
75414;BME280;64758;52.122;5.404;2023-12-20T01:26:52;101767.66;;;5.35;100.00
75414;BME280;64758;52.122;5.404;2023-12-20T01:29:19;101783.44;;;5.35;100.00
75414;BME280;64758;52.122;5.404;2023-12-20T01:31:45;101774.72;;;5.34;100.00
75414;BME280;64758;52.122;5.404;2023-12-20T01:34:12;101780.72;;;5.36;100.00
75414;BME280;64758;52.122;5.404;2023-12-20T01:36:39;101786.78;;;5.37;100.00
75414;BME280;64758;52.122;5.404;2023-12-20T01:39:06;101785.72;;;5.39;100.00
75414;BME280;64758;52.122;5.404;2023-12-20T01:41:50;101785.56;;;5.41;100.00
75414;BME280;64758;52.122;5.404;2023-12-20T01:44:16;101781.84;;;5.43;100.00
75414;BME280;64758;52.122;5.404;2023-12-20T01:46:43;101764.38;;;5.42;100.00
75414;BME280;64758;52.122;5.404;2023-12-20T01:49:10;101770.34;;;5.44;100.00
75414;BME280;64758;52.122;5.404;2023-12-20T01:51:36;101768.53;;;5.45;100.00
75414;BME280;64758;52.122;5.404;2023-12-20T01:54:03;101762.91;;;5.49;100.00
75414;BME280;64758;52.122;5.404;2023-12-20T01:56:31;101757.47;;;5.51;100.00
75414;BME280;64758;52.122;5.404;2023-12-20T01:58:58;101760.69;;;5.54;100.00
75414;BME280;64758;52.122;5.404;2023-12-20T02:01:24;101769.31;;;5.56;100.00
75414;BME280;64758;52.122;5.404;2023-12-20T02:03:52;101764.16;;;5.55;100.00
75414;BME280;64758;52.122;5.404;2023-12-20T02:06:21;101764.31;;;5.53;100.00
75414;BME280;64758;52.122;5.404;2023-12-20T02:08:50;101765.25;;;5.52;100.00
75414;BME280;64758;52.122;5.404;2023-12-20T02:11:16;101761.66;;;5.53;100.00
75414;BME280;64758;52.122;5.404;2023-12-20T02:13:43;101766.09;;;5.53;100.00
75414;BME280;64758;52.122;5.404;2023-12-20T02:16:10;101759.03;;;5.53;100.00
75414;BME280;64758;52.122;5.404;2023-12-20T02:18:36;101761.97;;;5.60;100.00
75414;BME280;64758;52.122;5.404;2023-12-20T02:21:05;101759.91;;;5.63;100.00
75414;BME280;64758;52.122;5.404;2023-12-20T02:23:32;101755.06;;;5.68;100.00
75414;BME280;64758;52.122;5.404;2023-12-20T02:25:58;101748.97;;;5.68;100.00
75414;BME280;64758;52.122;5.404;2023-12-20T02:28:25;101753.97;;;5.71;100.00
75414;BME280;64758;52.122;5.404;2023-12-20T02:30:51;101758.00;;;5.75;100.00
75414;BME280;64758;52.122;5.404;2023-12-20T02:33:18;101752.63;;;5.76;100.00
75414;BME280;64758;52.122;5.404;2023-12-20T02:35:45;101749.00;;;5.77;100.00
75414;BME280;64758;52.122;5.404;2023-12-20T02:38:11;101748.78;;;5.80;100.00
75414;BME280;64758;52.122;5.404;2023-12-20T02:40:38;101755.03;;;5.79;100.00
75414;BME280;64758;52.122;5.404;2023-12-20T02:43:04;101745.19;;;5.81;100.00
75414;BME280;64758;52.122;5.404;2023-12-20T02:45:31;101740.72;;;5.82;100.00
75414;BME280;64758;52.122;5.404;2023-12-20T02:47:57;101737.13;;;5.83;100.00
75414;BME280;64758;52.122;5.404;2023-12-20T02:50:24;101734.22;;;5.86;100.00
75414;BME280;64758;52.122;5.404;2023-12-20T02:52:51;101727.16;;;5.86;100.00
75414;BME280;64758;52.122;5.404;2023-12-20T02:55:17;101737.44;;;5.89;100.00
75414;BME280;64758;52.122;5.404;2023-12-20T02:57:44;101729.63;;;5.88;100.00
75414;BME280;64758;52.122;5.404;2023-12-20T03:00:11;101727.72;;;5.90;100.00
75414;BME280;64758;52.122;5.404;2023-12-20T03:02:38;101720.66;;;5.90;100.00
75414;BME280;64758;52.122;5.404;2023-12-20T03:05:05;101724.09;;;5.91;100.00
75414;BME280;64758;52.122;5.404;2023-12-20T03:07:32;101732.59;;;5.94;100.00
75414;BME280;64758;52.122;5.404;2023-12-20T03:09:58;101730.66;;;5.96;100.00
75414;BME280;64758;52.122;5.404;2023-12-20T03:12:44;101727.75;;;5.99;100.00
75414;BME280;64758;52.122;5.404;2023-12-20T03:15:11;101720.53;;;6.01;100.00
75414;BME280;64758;52.122;5.404;2023-12-20T03:17:37;101721.94;;;6.05;100.00
75414;BME280;64758;52.122;5.404;2023-12-20T03:20:05;101727.06;;;6.07;100.00
75414;BME280;64758;52.122;5.404;2023-12-20T03:22:32;101723.59;;;6.06;100.00
75414;BME280;64758;52.122;5.404;2023-12-20T03:24:58;101716.66;;;6.05;100.00
75414;BME280;64758;52.122;5.404;2023-12-20T03:27:25;101706.94;;;6.06;100.00
75414;BME280;64758;52.122;5.404;2023-12-20T03:29:51;101705.97;;;6.07;100.00
75414;BME280;64758;52.122;5.404;2023-12-20T03:32:18;101698.75;;;6.09;100.00
75414;BME280;64758;52.122;5.404;2023-12-20T03:34:44;101704.88;;;6.09;100.00
75414;BME280;64758;52.122;5.404;2023-12-20T03:37:11;101706.97;;;6.15;100.00
75414;BME280;64758;52.122;5.404;2023-12-20T03:39:38;101708.34;;;6.19;100.00
75414;BME280;64758;52.122;5.404;2023-12-20T03:42:04;101718.63;;;6.22;100.00
75414;BME280;64758;52.122;5.404;2023-12-20T03:44:31;101707.81;;;6.25;100.00
75414;BME280;64758;52.122;5.404;2023-12-20T03:46:57;101708.78;;;6.24;100.00
75414;BME280;64758;52.122;5.404;2023-12-20T03:49:24;101706.56;;;6.29;100.00
75414;BME280;64758;52.122;5.404;2023-12-20T03:51:50;101718.09;;;6.28;100.00
75414;BME280;64758;52.122;5.404;2023-12-20T03:54:17;101715.56;;;6.27;100.00
75414;BME280;64758;52.122;5.404;2023-12-20T03:56:44;101713.22;;;6.24;100.00
75414;BME280;64758;52.122;5.404;2023-12-20T03:59:10;101702.94;;;6.21;100.00
75414;BME280;64758;52.122;5.404;2023-12-20T04:01:37;101702.94;;;6.21;100.00
75414;BME280;64758;52.122;5.404;2023-12-20T04:04:03;101703.91;;;6.20;100.00
75414;BME280;64758;52.122;5.404;2023-12-20T04:06:30;101714.44;;;6.20;100.00
75414;BME280;64758;52.122;5.404;2023-12-20T04:08:57;101703.63;;;6.23;100.00
75414;BME280;64758;52.122;5.404;2023-12-20T04:11:23;101705.88;;;6.27;100.00
75414;BME280;64758;52.122;5.404;2023-12-20T04:13:50;101706.28;;;6.32;100.00
75414;BME280;64758;52.122;5.404;2023-12-20T04:16:16;101707.69;;;6.36;100.00
75414;BME280;64758;52.122;5.404;2023-12-20T04:18:43;101701.13;;;6.40;100.00
75414;BME280;64758;52.122;5.404;2023-12-20T04:21:10;101686.69;;;6.44;100.00
75414;BME280;64758;52.122;5.404;2023-12-20T04:23:37;101691.00;;;6.45;100.00
75414;BME280;64758;52.122;5.404;2023-12-20T04:26:03;101696.16;;;6.46;100.00
75414;BME280;64758;52.122;5.404;2023-12-20T04:28:29;101696.56;;;6.51;100.00
75414;BME280;64758;52.122;5.404;2023-12-20T04:30:56;101692.09;;;6.52;100.00
75414;BME280;64758;52.122;5.404;2023-12-20T04:33:23;101702.25;;;6.56;100.00
75414;BME280;64758;52.122;5.404;2023-12-20T04:35:50;101701.81;;;6.61;100.00
75414;BME280;64758;52.122;5.404;2023-12-20T04:38:17;101708.50;;;6.65;100.00
75414;BME280;64758;52.122;5.404;2023-12-20T04:40:44;101699.59;;;6.66;100.00
75414;BME280;64758;52.122;5.404;2023-12-20T04:43:11;101691.41;;;6.69;100.00
75414;BME280;64758;52.122;5.404;2023-12-20T04:45:37;101684.16;;;6.71;100.00
75414;BME280;64758;52.122;5.404;2023-12-20T04:48:04;101691.81;;;6.74;100.00
75414;BME280;64758;52.122;5.404;2023-12-20T04:50:31;101699.44;;;6.77;100.00
75414;BME280;64758;52.122;5.404;2023-12-20T04:52:57;101690.28;;;6.81;100.00
75414;BME280;64758;52.122;5.404;2023-12-20T04:55:24;101681.25;;;6.83;100.00
75414;BME280;64758;52.122;5.404;2023-12-20T04:57:50;101687.06;;;6.87;100.00
75414;BME280;64758;52.122;5.404;2023-12-20T05:00:17;101680.97;;;6.86;100.00
75414;BME280;64758;52.122;5.404;2023-12-20T05:02:44;101674.56;;;6.89;100.00
75414;BME280;64758;52.122;5.404;2023-12-20T05:05:10;101671.63;;;6.92;100.00
75414;BME280;64758;52.122;5.404;2023-12-20T05:07:37;101678.75;;;6.91;100.00
75414;BME280;64758;52.122;5.404;2023-12-20T05:10:04;101667.31;;;6.91;100.00
75414;BME280;64758;52.122;5.404;2023-12-20T05:12:31;101683.72;;;6.94;100.00
75414;BME280;64758;52.122;5.404;2023-12-20T05:14:58;101677.47;;;6.95;100.00
75414;BME280;64758;52.122;5.404;2023-12-20T05:17:24;101683.28;;;6.99;100.00
75414;BME280;64758;52.122;5.404;2023-12-20T05:19:51;101679.84;;;6.98;100.00
75414;BME280;64758;52.122;5.404;2023-12-20T05:22:19;101678.69;;;7.01;100.00
75414;BME280;64758;52.122;5.404;2023-12-20T05:24:46;101685.66;;;7.02;100.00
75414;BME280;64758;52.122;5.404;2023-12-20T05:27:13;101689.81;;;7.04;100.00
75414;BME280;64758;52.122;5.404;2023-12-20T05:29:39;101684.66;;;7.03;100.00
75414;BME280;64758;52.122;5.404;2023-12-20T05:32:06;101678.41;;;7.04;100.00
75414;BME280;64758;52.122;5.404;2023-12-20T05:34:33;101693.28;;;7.05;100.00
75414;BME280;64758;52.122;5.404;2023-12-20T05:36:59;101688.97;;;7.04;100.00
75414;BME280;64758;52.122;5.404;2023-12-20T05:39:28;101679.25;;;7.04;100.00
75414;BME280;64758;52.122;5.404;2023-12-20T05:41:54;101686.06;;;7.07;100.00
75414;BME280;64758;52.122;5.404;2023-12-20T05:44:21;101690.38;;;7.08;100.00
75414;BME280;64758;52.122;5.404;2023-12-20T05:46:47;101684.38;;;7.06;100.00
75414;BME280;64758;52.122;5.404;2023-12-20T05:49:14;101686.91;;;7.07;100.00
75414;BME280;64758;52.122;5.404;2023-12-20T05:51:40;101692.03;;;7.09;100.00
75414;BME280;64758;52.122;5.404;2023-12-20T05:54:08;101682.31;;;7.09;100.00
75414;BME280;64758;52.122;5.404;2023-12-20T05:56:35;101684.94;;;7.09;100.00
75414;BME280;64758;52.122;5.404;2023-12-20T05:59:02;101684.94;;;7.09;100.00
75414;BME280;64758;52.122;5.404;2023-12-20T06:01:28;101677.84;;;7.10;100.00
75414;BME280;64758;52.122;5.404;2023-12-20T06:03:55;101676.88;;;7.11;100.00
75414;BME280;64758;52.122;5.404;2023-12-20T06:06:22;101670.78;;;7.10;100.00
75414;BME280;64758;52.122;5.404;2023-12-20T06:08:49;101678.53;;;7.12;100.00
75414;BME280;64758;52.122;5.404;2023-12-20T06:11:15;101692.44;;;7.14;100.00
75414;BME280;64758;52.122;5.404;2023-12-20T06:13:42;101682.56;;;7.16;100.00
75414;BME280;64758;52.122;5.404;2023-12-20T06:16:09;101673.81;;;7.15;100.00
75414;BME280;64758;52.122;5.404;2023-12-20T06:18:35;101671.00;;;7.17;100.00
75414;BME280;64758;52.122;5.404;2023-12-20T06:21:04;101668.94;;;7.20;100.00
75414;BME280;64758;52.122;5.404;2023-12-20T06:23:30;101666.13;;;7.22;100.00
75414;BME280;64758;52.122;5.404;2023-12-20T06:25:57;101672.09;;;7.24;100.00
75414;BME280;64758;52.122;5.404;2023-12-20T06:28:23;101675.44;;;7.26;100.00
75414;BME280;64758;52.122;5.404;2023-12-20T06:30:50;101676.28;;;7.26;100.00
75414;BME280;64758;52.122;5.404;2023-12-20T06:33:19;101668.19;;;7.28;100.00
75414;BME280;64758;52.122;5.404;2023-12-20T06:35:47;101672.66;;;7.27;100.00
75414;BME280;64758;52.122;5.404;2023-12-20T06:38:14;101666.41;;;7.28;100.00
75414;BME280;64758;52.122;5.404;2023-12-20T06:40:41;101664.56;;;7.29;100.00
75414;BME280;64758;52.122;5.404;2023-12-20T06:43:09;101659.00;;;7.32;100.00
75414;BME280;64758;52.122;5.404;2023-12-20T06:45:49;101670.53;;;7.31;100.00
75414;BME280;64758;52.122;5.404;2023-12-20T06:48:16;101655.25;;;7.34;100.00
75414;BME280;64758;52.122;5.404;2023-12-20T06:50:42;101666.63;;;7.35;100.00
75414;BME280;64758;52.122;5.404;2023-12-20T06:53:09;101660.25;;;7.37;100.00
75414;BME280;64758;52.122;5.404;2023-12-20T06:55:36;101653.44;;;7.35;100.00
75414;BME280;64758;52.122;5.404;2023-12-20T06:58:04;101663.72;;;7.38;100.00
75414;BME280;64758;52.122;5.404;2023-12-20T07:00:32;101648.69;;;7.38;100.00
75414;BME280;64758;52.122;5.404;2023-12-20T07:02:58;101653.13;;;7.38;100.00
75414;BME280;64758;52.122;5.404;2023-12-20T07:05:25;101650.38;;;7.39;100.00
75414;BME280;64758;52.122;5.404;2023-12-20T07:07:52;101649.50;;;7.39;100.00
75414;BME280;64758;52.122;5.404;2023-12-20T07:10:18;101660.94;;;7.39;100.00
75414;BME280;64758;52.122;5.404;2023-12-20T07:12:45;101658.13;;;7.41;100.00
75414;BME280;64758;52.122;5.404;2023-12-20T07:15:12;101663.28;;;7.42;100.00
75414;BME280;64758;52.122;5.404;2023-12-20T07:17:38;101647.44;;;7.42;100.00
75414;BME280;64758;52.122;5.404;2023-12-20T07:20:05;101659.50;;;7.45;100.00
75414;BME280;64758;52.122;5.404;2023-12-20T07:22:36;101645.31;;;7.46;100.00
75414;BME280;64758;52.122;5.404;2023-12-20T07:25:03;101639.22;;;7.45;100.00
75414;BME280;64758;52.122;5.404;2023-12-20T07:27:30;101648.81;;;7.46;100.00
75414;BME280;64758;52.122;5.404;2023-12-20T07:29:57;101649.50;;;7.48;100.00
75414;BME280;64758;52.122;5.404;2023-12-20T07:32:23;101650.31;;;7.49;100.00
75414;BME280;64758;52.122;5.404;2023-12-20T07:34:50;101648.34;;;7.51;100.00
75414;BME280;64758;52.122;5.404;2023-12-20T07:37:17;101635.81;;;7.53;100.00
75414;BME280;64758;52.122;5.404;2023-12-20T07:39:43;101632.19;;;7.53;100.00
75414;BME280;64758;52.122;5.404;2023-12-20T07:42:10;101630.53;;;7.53;100.00
75414;BME280;64758;52.122;5.404;2023-12-20T07:44:37;101641.94;;;7.53;100.00
75414;BME280;64758;52.122;5.404;2023-12-20T07:47:04;101638.16;;;7.55;100.00
75414;BME280;64758;52.122;5.404;2023-12-20T07:49:31;101649.41;;;7.57;100.00
75414;BME280;64758;52.122;5.404;2023-12-20T07:51:58;101646.78;;;7.57;100.00
75414;BME280;64758;52.122;5.404;2023-12-20T07:54:25;101659.69;;;7.60;100.00
75414;BME280;64758;52.122;5.404;2023-12-20T07:56:52;101652.75;;;7.59;100.00
75414;BME280;64758;52.122;5.404;2023-12-20T07:59:18;101653.59;;;7.60;100.00
75414;BME280;64758;52.122;5.404;2023-12-20T08:01:57;101664.84;;;7.62;100.00
75414;BME280;64758;52.122;5.404;2023-12-20T08:04:24;101669.84;;;7.65;100.00
75414;BME280;64758;52.122;5.404;2023-12-20T08:06:51;101668.03;;;7.65;100.00
75414;BME280;64758;52.122;5.404;2023-12-20T08:09:18;101675.97;;;7.65;100.00
75414;BME280;64758;52.122;5.404;2023-12-20T08:11:46;101678.59;;;7.65;100.00
75414;BME280;64758;52.122;5.404;2023-12-20T08:14:13;101671.34;;;7.67;100.00
75414;BME280;64758;52.122;5.404;2023-12-20T08:16:39;101674.69;;;7.69;100.00
75414;BME280;64758;52.122;5.404;2023-12-20T08:19:06;101678.00;;;7.71;100.00
75414;BME280;64758;52.122;5.404;2023-12-20T08:21:33;101665.47;;;7.73;100.00
75414;BME280;64758;52.122;5.404;2023-12-20T08:24:04;101662.84;;;7.73;100.00
75414;BME280;64758;52.122;5.404;2023-12-20T08:26:30;101667.16;;;7.74;100.00
75414;BME280;64758;52.122;5.404;2023-12-20T08:28:57;101673.94;;;7.77;100.00
75414;BME280;64758;52.122;5.404;2023-12-20T08:31:27;101659.91;;;7.76;100.00
75414;BME280;64758;52.122;5.404;2023-12-20T08:33:54;101674.78;;;7.77;100.00
75414;BME280;64758;52.122;5.404;2023-12-20T08:36:21;101660.41;;;7.80;100.00
75414;BME280;64758;52.122;5.404;2023-12-20T08:38:50;101653.47;;;7.79;100.00
75414;BME280;64758;52.122;5.404;2023-12-20T08:41:17;101648.03;;;7.80;100.00
75414;BME280;64758;52.122;5.404;2023-12-20T08:43:44;101655.69;;;7.83;100.00
75414;BME280;64758;52.122;5.404;2023-12-20T08:46:11;101657.34;;;7.84;100.00
75414;BME280;64758;52.122;5.404;2023-12-20T08:48:38;101664.44;;;7.84;100.00
75414;BME280;64758;52.122;5.404;2023-12-20T08:51:06;101649.25;;;7.86;100.00
75414;BME280;64758;52.122;5.404;2023-12-20T08:53:35;101657.03;;;7.87;100.00
75414;BME280;64758;52.122;5.404;2023-12-20T08:56:02;101659.00;;;7.85;100.00
75414;BME280;64758;52.122;5.404;2023-12-20T08:58:29;101655.69;;;7.83;100.00
75414;BME280;64758;52.122;5.404;2023-12-20T09:00:56;101666.25;;;7.83;100.00
75414;BME280;64758;52.122;5.404;2023-12-20T09:03:24;101649.03;;;7.79;100.00
75414;BME280;64758;52.122;5.404;2023-12-20T09:05:50;101656.28;;;7.77;100.00
75414;BME280;64758;52.122;5.404;2023-12-20T09:08:17;101661.69;;;7.76;100.00
75414;BME280;64758;52.122;5.404;2023-12-20T09:10:44;101659.34;;;7.73;100.00
75414;BME280;64758;52.122;5.404;2023-12-20T09:13:11;101648.25;;;7.69;100.00
75414;BME280;64758;52.122;5.404;2023-12-20T09:15:38;101653.81;;;7.66;100.00
75414;BME280;64758;52.122;5.404;2023-12-20T09:18:05;101659.13;;;7.66;100.00
75414;BME280;64758;52.122;5.404;2023-12-20T09:20:32;101647.69;;;7.66;100.00
75414;BME280;64758;52.122;5.404;2023-12-20T09:22:59;101652.16;;;7.65;100.00
75414;BME280;64758;52.122;5.404;2023-12-20T09:25:26;101652.00;;;7.67;100.00
75414;BME280;64758;52.122;5.404;2023-12-20T09:27:53;101649.34;;;7.67;100.00
75414;BME280;64758;52.122;5.404;2023-12-20T09:30:20;101647.56;;;7.67;100.00
75414;BME280;64758;52.122;5.404;2023-12-20T09:32:56;101648.06;;;7.71;100.00
75414;BME280;64758;52.122;5.404;2023-12-20T09:35:23;101650.28;;;7.75;100.00
75414;BME280;64758;52.122;5.404;2023-12-20T09:37:50;101647.34;;;7.78;100.00
75414;BME280;64758;52.122;5.404;2023-12-20T09:40:18;101649.53;;;7.83;100.00
75414;BME280;64758;52.122;5.404;2023-12-20T09:43:00;101641.84;;;7.89;100.00
75414;BME280;64758;52.122;5.404;2023-12-20T09:45:30;101651.16;;;7.93;100.00
75414;BME280;64758;52.122;5.404;2023-12-20T09:47:58;101649.72;;;7.99;100.00
75414;BME280;64758;52.122;5.404;2023-12-20T09:50:24;101657.72;;;8.07;100.00
75414;BME280;64758;52.122;5.404;2023-12-20T09:52:53;101653.81;;;8.11;100.00
75414;BME280;64758;52.122;5.404;2023-12-20T09:55:20;101663.09;;;8.15;100.00
75414;BME280;64758;52.122;5.404;2023-12-20T09:57:48;101661.72;;;8.20;100.00
75414;BME280;64758;52.122;5.404;2023-12-20T10:00:16;101656.81;;;8.25;100.00
75414;BME280;64758;52.122;5.404;2023-12-20T10:02:58;101647.59;;;8.29;100.00
75414;BME280;64758;52.122;5.404;2023-12-20T10:05:33;101653.25;;;8.34;100.00
75414;BME280;64758;52.122;5.404;2023-12-20T10:08:01;101670.50;;;8.38;100.00
75414;BME280;64758;52.122;5.404;2023-12-20T10:10:29;101674.50;;;8.42;100.00
75414;BME280;64758;52.122;5.404;2023-12-20T10:13:06;101669.22;;;8.42;100.00
75414;BME280;64758;52.122;5.404;2023-12-20T10:15:33;101675.88;;;8.46;100.00
75414;BME280;64758;52.122;5.404;2023-12-20T10:18:01;101678.50;;;8.46;100.00
75414;BME280;64758;52.122;5.404;2023-12-20T10:20:29;101677.53;;;8.47;100.00
75414;BME280;64758;52.122;5.404;2023-12-20T10:22:57;101675.56;;;8.49;100.00
75414;BME280;64758;52.122;5.404;2023-12-20T10:25:24;101669.28;;;8.50;100.00
75414;BME280;64758;52.122;5.404;2023-12-20T10:30:37;101657.03;;;8.49;100.00
75414;BME280;64758;52.122;5.404;2023-12-20T10:33:05;101649.91;;;8.50;100.00
75414;BME280;64758;52.122;5.404;2023-12-20T10:35:37;101652.09;;;8.54;100.00
75414;BME280;64758;52.122;5.404;2023-12-20T10:38:06;101655.13;;;8.59;100.00
75414;BME280;64758;52.122;5.404;2023-12-20T10:40:36;101660.94;;;8.63;100.00
75414;BME280;64758;52.122;5.404;2023-12-20T10:43:04;101650.03;;;8.66;100.00
75414;BME280;64758;52.122;5.404;2023-12-20T10:45:31;101649.34;;;8.64;100.00
75414;BME280;64758;52.122;5.404;2023-12-20T10:47:58;101643.91;;;8.65;100.00
75414;BME280;64758;52.122;5.404;2023-12-20T10:50:28;101648.91;;;8.68;100.00
75414;BME280;64758;52.122;5.404;2023-12-20T10:52:56;101642.47;;;8.71;100.00
75414;BME280;64758;52.122;5.404;2023-12-20T10:55:25;101640.50;;;8.73;100.00
75414;BME280;64758;52.122;5.404;2023-12-20T10:57:54;101626.94;;;8.76;100.00
75414;BME280;64758;52.122;5.404;2023-12-20T11:00:26;101640.03;;;8.77;100.00
75414;BME280;64758;52.122;5.404;2023-12-20T11:02:56;101632.91;;;8.78;100.00
75414;BME280;64758;52.122;5.404;2023-12-20T11:08:55;101620.72;;;8.84;100.00
75414;BME280;64758;52.122;5.404;2023-12-20T11:11:35;101612.13;;;8.90;100.00
75414;BME280;64758;52.122;5.404;2023-12-20T11:14:06;101615.81;;;8.97;100.00
75414;BME280;64758;52.122;5.404;2023-12-20T11:16:37;101621.47;;;9.02;100.00
75414;BME280;64758;52.122;5.404;2023-12-20T11:19:17;101622.84;;;9.06;100.00
75414;BME280;64758;52.122;5.404;2023-12-20T11:21:45;101608.28;;;9.10;100.00
75414;BME280;64758;52.122;5.404;2023-12-20T11:24:12;101612.41;;;9.13;100.00
75414;BME280;64758;52.122;5.404;2023-12-20T11:26:47;101599.16;;;9.13;100.00
75414;BME280;64758;52.122;5.404;2023-12-20T11:29:31;101588.72;;;9.11;100.00
75414;BME280;64758;52.122;5.404;2023-12-20T11:32:03;101598.34;;;9.12;100.00
75414;BME280;64758;52.122;5.404;2023-12-20T11:34:33;101591.94;;;9.23;100.00
75414;BME280;64758;52.122;5.404;2023-12-20T11:37:02;101586.97;;;9.28;100.00
75414;BME280;64758;52.122;5.404;2023-12-20T11:39:30;101584.84;;;9.31;100.00
75414;BME280;64758;52.122;5.404;2023-12-20T11:41:57;101598.81;;;9.41;100.00
75414;BME280;64758;52.122;5.404;2023-12-20T11:44:25;101582.38;;;9.38;100.00
75414;BME280;64758;52.122;5.404;2023-12-20T11:46:52;101588.34;;;9.40;100.00
75414;BME280;64758;52.122;5.404;2023-12-20T11:49:23;101578.41;;;9.42;100.00
75414;BME280;64758;52.122;5.404;2023-12-20T11:51:50;101582.38;;;9.38;100.00
75414;BME280;64758;52.122;5.404;2023-12-20T11:54:18;101577.41;;;9.35;100.00
75414;BME280;64758;52.122;5.404;2023-12-20T11:56:44;101565.31;;;9.32;100.00
75414;BME280;64758;52.122;5.404;2023-12-20T11:59:11;101568.78;;;9.33;100.00
75414;BME280;64758;52.122;5.404;2023-12-20T12:01:49;101574.59;;;9.36;100.00
75414;BME280;64758;52.122;5.404;2023-12-20T12:04:17;101554.19;;;9.37;100.00
75414;BME280;64758;52.122;5.404;2023-12-20T12:06:44;101566.13;;;9.33;100.00
75414;BME280;64758;52.122;5.404;2023-12-20T12:09:12;101567.97;;;9.32;100.00
75414;BME280;64758;52.122;5.404;2023-12-20T12:11:38;101576.59;;;9.34;100.00
75414;BME280;64758;52.122;5.404;2023-12-20T12:14:07;101583.69;;;9.34;100.00
75414;BME280;64758;52.122;5.404;2023-12-20T12:16:33;101581.03;;;9.34;100.00
75414;BME280;64758;52.122;5.404;2023-12-20T12:19:00;101575.59;;;9.35;100.00
75414;BME280;64758;52.122;5.404;2023-12-20T12:21:27;101575.72;;;9.34;100.00
75414;BME280;64758;52.122;5.404;2023-12-20T12:24:09;101573.94;;;9.34;100.00
75414;BME280;64758;52.122;5.404;2023-12-20T12:26:36;101573.75;;;9.36;100.00
75414;BME280;64758;52.122;5.404;2023-12-20T12:29:02;101580.72;;;9.37;100.00
75414;BME280;64758;52.122;5.404;2023-12-20T12:31:30;101564.00;;;9.36;100.00
75414;BME280;64758;52.122;5.404;2023-12-20T12:33:56;101557.84;;;9.36;100.00
75414;BME280;64758;52.122;5.404;2023-12-20T12:36:23;101555.19;;;9.36;100.00
75414;BME280;64758;52.122;5.404;2023-12-20T12:38:50;101549.06;;;9.35;100.00
75414;BME280;64758;52.122;5.404;2023-12-20T12:41:17;101548.56;;;9.32;100.00
75414;BME280;64758;52.122;5.404;2023-12-20T12:43:44;101539.59;;;9.33;100.00
75414;BME280;64758;52.122;5.404;2023-12-20T12:46:10;101537.81;;;9.33;100.00
75414;BME280;64758;52.122;5.404;2023-12-20T12:48:37;101530.66;;;9.34;100.00
75414;BME280;64758;52.122;5.404;2023-12-20T12:51:06;101532.66;;;9.32;100.00
75414;BME280;64758;52.122;5.404;2023-12-20T12:53:39;101534.63;;;9.30;100.00
75414;BME280;64758;52.122;5.404;2023-12-20T12:56:06;101525.88;;;9.29;100.00
75414;BME280;64758;52.122;5.404;2023-12-20T12:58:33;101526.69;;;9.30;100.00